createdAt,value
2023-05-04T00:01:36.055Z,100.00
2023-05-04T00:04:04.097Z,100.00
2023-05-04T00:06:31.753Z,100.00
2023-05-04T00:08:59.381Z,100.00
2023-05-04T00:11:27.286Z,100.00
2023-05-04T00:13:54.966Z,100.00
2023-05-04T00:16:22.613Z,100.00
2023-05-04T00:18:50.577Z,100.00
2023-05-04T00:21:18.188Z,100.00
2023-05-04T00:23:45.801Z,100.00
2023-05-04T00:26:13.876Z,100.00
2023-05-04T00:28:41.921Z,100.00
2023-05-04T00:31:09.687Z,100.00
2023-05-04T00:33:37.901Z,100.00
2023-05-04T00:36:05.764Z,100.00
2023-05-04T00:38:35.907Z,100.00
2023-05-04T00:41:03.950Z,100.00
2023-05-04T00:43:31.725Z,100.00
2023-05-04T00:45:59.271Z,100.00
2023-05-04T00:48:27.152Z,100.00
2023-05-04T00:50:54.735Z,100.00
2023-05-04T00:53:22.378Z,100.00
2023-05-04T00:55:50.376Z,100.00
2023-05-04T00:58:18.005Z,100.00
2023-05-04T01:00:45.759Z,100.00
2023-05-04T01:03:13.969Z,100.00
2023-05-04T01:05:43.649Z,100.00
2023-05-04T01:08:14.081Z,100.00
2023-05-04T01:10:57.011Z,100.00
2023-05-04T01:13:24.839Z,100.00
2023-05-04T01:15:52.892Z,100.00
2023-05-04T01:18:20.793Z,100.00
2023-05-04T01:20:48.697Z,100.00
2023-05-04T01:23:16.839Z,100.00
2023-05-04T01:26:03.661Z,100.00
2023-05-04T01:28:53.413Z,100.00
2023-05-04T01:31:22.084Z,100.00
2023-05-04T01:33:52.014Z,100.00
2023-05-04T01:36:20.834Z,100.00
2023-05-04T01:38:49.269Z,100.00
2023-05-04T01:41:17.250Z,100.00
2023-05-04T01:43:44.834Z,100.00
2023-05-04T01:46:12.440Z,100.00
2023-05-04T01:48:40.726Z,100.00
2023-05-04T01:51:08.325Z,100.00
2023-05-04T01:53:36.311Z,100.00
2023-05-04T01:56:04.361Z,100.00
2023-05-04T01:58:32.404Z,100.00
2023-05-04T02:01:00.037Z,100.00
2023-05-04T02:03:28.272Z,100.00
2023-05-04T02:05:56.288Z,100.00
2023-05-04T02:08:23.903Z,100.00
2023-05-04T02:10:52.725Z,100.00
2023-05-04T02:13:20.449Z,100.00
2023-05-04T02:15:48.369Z,100.00
2023-05-04T02:18:17.694Z,100.00
2023-05-04T02:20:45.471Z,100.00
2023-05-04T02:23:15.004Z,100.00
2023-05-04T02:25:42.970Z,100.00
2023-05-04T02:28:10.756Z,100.00
2023-05-04T02:30:38.457Z,100.00
2023-05-04T02:33:06.589Z,100.00
2023-05-04T02:35:34.406Z,100.00
2023-05-04T02:38:02.633Z,100.00
2023-05-04T02:40:30.288Z,100.00
2023-05-04T02:42:57.872Z,100.00
2023-05-04T02:45:26.119Z,100.00
2023-05-04T02:47:53.943Z,100.00
2023-05-04T02:50:21.554Z,100.00
2023-05-04T02:52:49.751Z,100.00
2023-05-04T02:55:17.285Z,100.00
2023-05-04T02:57:45.129Z,99.23
2023-05-04T03:00:13.234Z,99.22
2023-05-04T03:02:41.246Z,100.00
2023-05-04T03:05:09.048Z,100.00
2023-05-04T03:07:37.007Z,100.00
2023-05-04T03:10:05.044Z,100.00
2023-05-04T03:12:32.997Z,100.00
2023-05-04T03:15:01.129Z,100.00
2023-05-04T03:17:28.779Z,100.00
2023-05-04T03:19:56.658Z,100.00
2023-05-04T03:22:25.780Z,100.00
2023-05-04T03:24:53.358Z,100.00
2023-05-04T03:27:21.020Z,98.81
2023-05-04T03:29:49.069Z,96.04
2023-05-04T03:32:17.145Z,100.00
2023-05-04T03:34:46.012Z,100.00
2023-05-04T03:37:14.044Z,100.00
2023-05-04T03:39:41.788Z,100.00
2023-05-04T03:42:09.855Z,100.00
2023-05-04T03:44:37.821Z,100.00
2023-05-04T03:47:05.527Z,100.00
2023-05-04T03:49:33.145Z,100.00
2023-05-04T03:52:01.027Z,100.00
2023-05-04T03:54:28.757Z,100.00
2023-05-04T03:56:56.522Z,100.00
2023-05-04T03:59:24.856Z,100.00
2023-05-04T04:01:52.902Z,100.00
2023-05-04T04:04:20.876Z,100.00
2023-05-04T04:06:48.556Z,100.00
2023-05-04T04:09:16.229Z,100.00
2023-05-04T04:11:44.430Z,100.00
2023-05-04T04:14:12.006Z,100.00
2023-05-04T04:16:39.740Z,100.00
2023-05-04T04:19:07.958Z,100.00
2023-05-04T04:21:35.617Z,100.00
2023-05-04T04:24:03.410Z,100.00
2023-05-04T04:26:31.405Z,100.00
2023-05-04T04:28:58.994Z,100.00
2023-05-04T04:31:27.015Z,100.00
2023-05-04T04:33:55.495Z,100.00
2023-05-04T04:36:23.052Z,100.00
2023-05-04T04:38:50.591Z,100.00
2023-05-04T04:41:19.190Z,100.00
2023-05-04T04:43:47.538Z,100.00
2023-05-04T04:46:15.656Z,100.00
2023-05-04T04:48:43.739Z,100.00
2023-05-04T04:51:11.838Z,100.00
2023-05-04T04:53:39.734Z,99.73
2023-05-04T04:56:07.895Z,100.00
2023-05-04T04:58:35.677Z,100.00
2023-05-04T05:01:03.738Z,99.62
2023-05-04T05:03:32.134Z,99.82
2023-05-04T05:06:02.097Z,100.00
2023-05-04T05:08:30.744Z,98.00
2023-05-04T05:10:58.725Z,97.19
2023-05-04T05:13:26.399Z,96.82
2023-05-04T05:15:54.003Z,94.10
2023-05-04T05:18:22.339Z,95.53
2023-05-04T05:20:50.323Z,96.14
2023-05-04T05:23:18.142Z,91.78
2023-05-04T05:25:46.307Z,90.59
2023-05-04T05:28:14.011Z,90.73
2023-05-04T05:30:41.692Z,87.43
2023-05-04T05:33:10.388Z,89.51
2023-05-04T05:35:38.143Z,88.74
2023-05-04T05:38:05.806Z,87.83
2023-05-04T05:40:33.757Z,85.93
2023-05-04T05:43:01.359Z,83.78
2023-05-04T05:45:28.966Z,82.94
2023-05-04T05:47:57.136Z,82.90
2023-05-04T05:50:24.720Z,81.31
2023-05-04T05:52:52.505Z,80.90
2023-05-04T05:55:20.449Z,79.78
2023-05-04T05:57:48.083Z,77.70
2023-05-04T06:00:15.987Z,78.87
2023-05-04T06:02:44.061Z,73.85
2023-05-04T06:05:12.858Z,75.67
2023-05-04T06:07:40.811Z,74.75
2023-05-04T06:10:09.718Z,74.32
2023-05-04T06:12:37.542Z,70.59
2023-05-04T06:15:05.597Z,66.26
2023-05-04T06:17:33.968Z,63.20
2023-05-04T06:20:01.722Z,58.20
2023-05-04T06:22:29.315Z,57.71
2023-05-04T06:25:01.583Z,57.46
2023-05-04T06:27:33.045Z,57.65
2023-05-04T06:30:00.966Z,54.64
2023-05-04T06:32:28.580Z,52.57
2023-05-04T06:34:56.438Z,57.88
2023-05-04T06:37:24.629Z,56.41
2023-05-04T06:39:52.338Z,58.62
2023-05-04T06:42:20.112Z,58.69
2023-05-04T06:44:49.069Z,59.50
2023-05-04T06:47:16.647Z,58.82
2023-05-04T06:49:44.173Z,58.45
2023-05-04T06:52:12.078Z,57.09
2023-05-04T06:54:40.453Z,55.02
2023-05-04T06:57:09.175Z,57.66
2023-05-04T06:59:38.085Z,58.07
2023-05-04T07:02:05.733Z,58.72
2023-05-04T07:04:33.598Z,58.93
2023-05-04T07:07:01.590Z,58.83
2023-05-04T07:09:29.203Z,56.06
2023-05-04T07:11:56.762Z,59.47
2023-05-04T07:14:24.780Z,58.30
2023-05-04T07:16:52.446Z,58.17
2023-05-04T07:19:21.139Z,57.31
2023-05-04T07:21:49.215Z,55.82
2023-05-04T07:24:16.981Z,56.15
2023-05-04T07:26:44.595Z,55.21
2023-05-04T07:29:12.565Z,56.60
2023-05-04T07:31:40.406Z,52.25
2023-05-04T07:34:08.161Z,50.41
2023-05-04T07:36:36.248Z,50.72
2023-05-04T07:39:04.132Z,48.80
2023-05-04T07:41:33.228Z,45.73
2023-05-04T07:44:05.808Z,48.02
2023-05-04T07:46:33.594Z,48.32
2023-05-04T07:49:03.296Z,47.37
2023-05-04T07:51:31.015Z,44.22
2023-05-04T07:53:58.684Z,40.84
2023-05-04T07:56:26.646Z,46.98
2023-05-04T07:58:54.342Z,49.34
2023-05-04T08:01:48.836Z,45.96
2023-05-04T08:04:17.846Z,42.11
2023-05-04T08:06:50.065Z,42.13
2023-05-04T08:09:20.015Z,40.30
2023-05-04T08:11:48.639Z,41.21
2023-05-04T08:14:20.127Z,40.00
2023-05-04T08:17:10.025Z,40.74
2023-05-04T08:19:41.503Z,40.25
2023-05-04T08:22:12.002Z,40.83
2023-05-04T08:24:39.951Z,41.00
2023-05-04T08:27:08.915Z,40.90
2023-05-04T08:29:38.096Z,43.72
2023-05-04T08:32:06.230Z,45.88
2023-05-04T08:34:59.973Z,41.92
2023-05-04T08:37:29.004Z,40.05
2023-05-04T08:43:14.365Z,40.73
2023-05-04T08:45:45.036Z,43.67
2023-05-04T08:48:13.541Z,42.68
2023-05-04T08:50:41.575Z,42.04
2023-05-04T08:53:11.903Z,40.65
2023-05-04T08:55:39.811Z,39.15
2023-05-04T08:58:13.433Z,41.38
2023-05-04T09:01:10.327Z,41.44
2023-05-04T09:03:49.258Z,41.13
2023-05-04T09:06:19.469Z,38.42
2023-05-04T09:08:48.620Z,46.91
2023-05-04T09:11:20.042Z,44.43
2023-05-04T09:13:57.991Z,46.26
2023-05-04T09:17:00.391Z,45.55
2023-05-04T09:19:36.935Z,45.21
2023-05-04T09:22:17.847Z,47.05
2023-05-04T09:25:11.876Z,45.91
2023-05-04T09:27:47.100Z,46.12
2023-05-04T09:30:31.147Z,45.43
2023-05-04T09:33:05.925Z,49.57
2023-05-04T09:35:49.165Z,50.52
2023-05-04T09:38:30.607Z,48.65
2023-05-04T09:41:05.071Z,49.27
2023-05-04T09:44:09.132Z,47.64
2023-05-04T09:46:37.385Z,48.55
2023-05-04T09:49:08.168Z,49.84
2023-05-04T09:51:56.303Z,51.06
2023-05-04T09:54:24.847Z,52.34
2023-05-04T09:56:57.041Z,49.63
2023-05-04T09:59:42.485Z,50.77
2023-05-04T10:05:35.822Z,52.04
2023-05-04T10:08:03.723Z,51.94
2023-05-04T10:10:34.981Z,53.54
2023-05-04T10:13:07.209Z,52.46
2023-05-04T10:22:26.309Z,53.53
2023-05-04T10:24:54.970Z,52.98
2023-05-04T10:27:50.281Z,52.51
2023-05-04T10:30:19.225Z,52.32
2023-05-04T10:32:54.174Z,51.56
2023-05-04T10:35:22.186Z,52.49
2023-05-04T10:37:50.822Z,53.52
2023-05-04T10:40:18.762Z,51.96
2023-05-04T10:42:46.540Z,50.47
2023-05-04T10:45:14.852Z,47.37
2023-05-04T10:48:50.218Z,47.21
2023-05-04T10:52:23.092Z,47.54
2023-05-04T11:02:04.975Z,44.42
2023-05-04T11:04:47.581Z,45.10
2023-05-04T11:07:42.610Z,43.41
2023-05-04T11:10:36.352Z,43.93
2023-05-04T11:13:15.269Z,40.46
2023-05-04T11:15:48.773Z,39.95
2023-05-04T11:18:32.161Z,40.33
2023-05-04T11:21:06.115Z,37.15
2023-05-04T11:23:57.026Z,35.82
2023-05-04T11:26:33.640Z,36.65
2023-05-04T11:29:11.930Z,41.75
2023-05-04T11:32:03.144Z,42.40
2023-05-04T11:34:31.863Z,45.22
2023-05-04T11:37:01.100Z,45.47
2023-05-04T11:39:36.052Z,46.40
2023-05-04T11:42:10.559Z,45.49
2023-05-04T11:44:39.449Z,49.37
2023-05-04T11:47:13.972Z,49.44
2023-05-04T11:49:47.562Z,50.54
2023-05-04T11:52:23.870Z,54.34
2023-05-04T11:54:57.155Z,55.06
2023-05-04T11:57:27.719Z,52.89
2023-05-04T12:00:07.837Z,53.52
2023-05-04T12:02:38.060Z,55.26
2023-05-04T12:05:13.826Z,59.50
2023-05-04T12:07:44.044Z,58.28
2023-05-04T12:10:28.780Z,58.03
2023-05-04T12:13:18.791Z,60.39
2023-05-04T12:15:48.976Z,57.92
2023-05-04T12:18:29.942Z,60.23
2023-05-04T12:21:14.919Z,57.39
2023-05-04T12:23:45.329Z,57.96
2023-05-04T12:26:18.973Z,55.51
2023-05-04T12:29:01.592Z,56.79
2023-05-04T12:31:48.132Z,57.42
2023-05-04T12:34:28.938Z,59.72
2023-05-04T12:37:13.609Z,58.71
2023-05-04T12:40:25.156Z,58.65
2023-05-04T12:43:28.111Z,56.90
2023-05-04T12:46:02.402Z,51.94
2023-05-04T12:48:42.181Z,47.45
2023-05-04T12:51:13.828Z,47.66
2023-05-04T12:53:52.865Z,48.29
2023-05-04T12:56:22.739Z,49.49
2023-05-04T12:58:55.315Z,46.77
2023-05-04T13:01:27.555Z,48.03
2023-05-04T13:04:04.240Z,52.74
2023-05-04T13:06:37.080Z,49.40
2023-05-04T13:09:25.488Z,49.56
2023-05-04T13:12:02.821Z,47.81
2023-05-04T13:14:39.328Z,47.95
2023-05-04T13:17:18.602Z,47.51
2023-05-04T13:19:51.763Z,46.18
2023-05-04T13:22:24.734Z,46.69
2023-05-04T13:27:45.207Z,49.77
2023-05-04T13:30:23.491Z,50.40
2023-05-04T13:33:13.355Z,49.73
2023-05-04T13:38:37.026Z,49.56
2023-05-04T13:41:05.153Z,47.84
2023-05-04T13:43:33.518Z,47.49
2023-05-04T13:46:04.668Z,45.86
2023-05-04T13:48:36.190Z,47.96
2023-05-04T13:51:10.177Z,49.39
2023-05-04T13:56:22.408Z,47.96
2023-05-04T14:01:44.378Z,49.19
2023-05-04T14:04:12.667Z,48.48
2023-05-04T14:06:40.438Z,48.95
2023-05-04T14:09:16.646Z,49.74
2023-05-04T14:12:07.342Z,50.87
2023-05-04T14:14:35.242Z,52.52
2023-05-04T14:17:04.912Z,51.64
2023-05-04T14:19:33.991Z,54.16
2023-05-04T14:22:05.559Z,54.77
2023-05-04T14:24:38.047Z,54.76
2023-05-04T14:27:05.771Z,52.18
2023-05-04T14:29:37.210Z,51.82
2023-05-04T14:32:05.433Z,51.54
2023-05-04T14:34:33.305Z,49.95
2023-05-04T14:37:01.874Z,51.13
2023-05-04T14:39:34.583Z,52.83
2023-05-04T14:42:03.568Z,51.63
2023-05-04T14:44:38.879Z,54.02
2023-05-04T14:47:07.993Z,51.82
2023-05-04T14:49:42.853Z,49.99
2023-05-04T14:52:17.363Z,51.32
2023-05-04T14:55:01.870Z,50.09
2023-05-04T14:57:54.957Z,48.32
2023-05-04T15:00:35.977Z,49.09
2023-05-04T15:03:08.912Z,50.30
2023-05-04T15:05:42.674Z,49.00
2023-05-04T15:08:17.483Z,49.56
2023-05-04T15:10:52.953Z,48.94
2023-05-04T15:13:21.075Z,49.33
2023-05-04T15:15:49.311Z,51.99
2023-05-04T15:18:20.242Z,50.43
2023-05-04T15:20:54.480Z,50.80
2023-05-04T15:23:25.062Z,49.76
2023-05-04T15:25:53.734Z,49.79
2023-05-04T15:28:24.621Z,53.17
2023-05-04T15:31:05.210Z,51.53
2023-05-04T15:33:33.343Z,53.27
2023-05-04T15:36:05.291Z,52.37
2023-05-04T15:38:33.741Z,51.86
2023-05-04T15:41:06.012Z,56.19
2023-05-04T15:43:34.204Z,56.80
2023-05-04T15:46:03.653Z,55.06
2023-05-04T15:48:31.625Z,56.32
2023-05-04T15:51:05.022Z,55.33
2023-05-04T15:53:35.700Z,57.23
2023-05-04T15:56:42.448Z,57.76
2023-05-04T15:59:52.389Z,56.46
2023-05-04T16:02:22.533Z,57.81
2023-05-04T16:05:18.648Z,57.09
2023-05-04T16:07:50.792Z,57.70
2023-05-04T16:10:20.449Z,57.60
2023-05-04T16:12:52.037Z,59.76
2023-05-04T16:15:21.385Z,61.08
2023-05-04T16:17:54.074Z,58.55
2023-05-04T16:20:22.649Z,59.57
2023-05-04T16:22:51.103Z,57.36
2023-05-04T16:25:22.233Z,57.55
2023-05-04T16:27:53.446Z,57.33
2023-05-04T16:30:23.648Z,55.49
2023-05-04T16:32:51.843Z,55.01
2023-05-04T16:35:21.658Z,53.74
2023-05-04T16:37:49.531Z,53.60
2023-05-04T16:40:17.487Z,53.27
2023-05-04T16:42:48.416Z,53.32
2023-05-04T16:45:16.514Z,53.90
2023-05-04T16:47:46.640Z,54.56
2023-05-04T16:50:14.953Z,54.16
2023-05-04T16:52:45.973Z,55.93
2023-05-04T16:55:17.881Z,56.24
2023-05-04T16:57:49.743Z,56.57
2023-05-04T17:00:18.661Z,57.23
2023-05-04T17:02:46.467Z,57.60
2023-05-04T17:05:15.172Z,57.39
2023-05-04T17:07:46.190Z,57.90
2023-05-04T17:10:15.220Z,60.07
2023-05-04T17:12:43.540Z,59.28
2023-05-04T17:15:11.632Z,59.39
2023-05-04T17:17:44.673Z,59.54
2023-05-04T17:20:15.619Z,58.87
2023-05-04T17:22:43.837Z,57.39
2023-05-04T17:25:12.495Z,58.51
2023-05-04T17:27:41.426Z,60.24
2023-05-04T17:30:10.872Z,61.67
2023-05-04T17:32:39.956Z,61.50
2023-05-04T17:35:23.469Z,63.84
2023-05-04T17:37:57.634Z,62.17
2023-05-04T17:40:34.931Z,63.93
2023-05-04T17:43:04.073Z,64.90
2023-05-04T17:45:32.300Z,64.04
2023-05-04T17:48:01.234Z,67.59
2023-05-04T17:50:29.782Z,68.21
2023-05-04T17:52:58.925Z,68.28
2023-05-04T17:55:28.944Z,69.17
2023-05-04T17:58:00.272Z,69.00
2023-05-04T18:00:28.443Z,68.77
2023-05-04T18:02:56.916Z,69.98
2023-05-04T18:05:26.034Z,70.99
2023-05-04T18:08:00.506Z,69.10
2023-05-04T18:10:29.590Z,70.91
2023-05-04T18:13:00.586Z,71.12
2023-05-04T18:15:30.836Z,71.24
2023-05-04T18:17:59.122Z,71.46
2023-05-04T18:20:27.107Z,72.01
2023-05-04T18:22:54.941Z,72.46
2023-05-04T18:25:23.740Z,73.97
2023-05-04T18:27:52.709Z,73.49
2023-05-04T18:30:22.960Z,72.79
2023-05-04T18:32:51.469Z,74.76
2023-05-04T18:35:19.353Z,78.03
2023-05-04T18:37:49.803Z,81.16
2023-05-04T18:40:19.314Z,82.70
2023-05-04T18:42:47.206Z,80.29
2023-05-04T18:45:15.882Z,80.30
2023-05-04T18:47:44.049Z,80.55
2023-05-04T18:50:13.250Z,84.14
2023-05-04T18:52:41.173Z,86.32
2023-05-04T18:55:10.470Z,86.20
2023-05-04T18:57:38.451Z,87.68
2023-05-04T19:00:13.662Z,87.63
2023-05-04T19:02:48.237Z,87.51
2023-05-04T19:05:17.679Z,88.11
2023-05-04T19:07:49.078Z,88.46
2023-05-04T19:10:16.923Z,89.45
2023-05-04T19:12:48.298Z,88.51
2023-05-04T19:15:16.562Z,93.08
2023-05-04T19:17:45.635Z,94.76
2023-05-04T19:20:19.357Z,95.34
2023-05-04T19:22:53.663Z,94.82
2023-05-04T19:25:33.803Z,96.16
2023-05-04T19:28:09.055Z,97.64
2023-05-04T19:30:39.946Z,99.08
2023-05-04T19:33:11.245Z,99.71
2023-05-04T19:35:39.942Z,99.56
2023-05-04T19:38:12.821Z,91.08
2023-05-04T19:40:43.000Z,89.15
2023-05-04T19:43:12.184Z,87.31
2023-05-04T19:45:39.953Z,83.07
2023-05-04T19:48:09.154Z,91.61
2023-05-04T19:50:37.093Z,96.61
2023-05-04T19:53:06.480Z,99.98
2023-05-04T19:55:38.147Z,98.70
2023-05-04T19:58:08.006Z,98.90
2023-05-04T20:00:39.675Z,98.04
2023-05-04T20:03:15.364Z,95.83
2023-05-04T20:05:51.310Z,91.63
2023-05-04T20:08:19.546Z,99.42
2023-05-04T20:10:48.490Z,100.00
2023-05-04T20:13:31.159Z,100.00
2023-05-04T20:16:00.068Z,99.82
2023-05-04T20:18:28.858Z,99.61
2023-05-04T20:20:59.283Z,98.72
2023-05-04T20:23:28.140Z,96.66
2023-05-04T20:25:55.932Z,88.73
2023-05-04T20:28:27.641Z,93.06
2023-05-04T20:31:01.899Z,98.97
2023-05-04T20:33:29.726Z,100.00
2023-05-04T20:36:01.987Z,100.00
2023-05-04T20:38:34.468Z,100.00
2023-05-04T20:41:05.762Z,100.00
2023-05-04T20:43:35.608Z,100.00
2023-05-04T20:49:15.550Z,100.00
2023-05-04T20:51:54.025Z,100.00
2023-05-04T20:54:39.988Z,100.00
2023-05-04T20:57:14.510Z,94.44
2023-05-04T20:59:46.559Z,100.00
2023-05-04T21:05:40.476Z,100.00
2023-05-04T21:08:22.419Z,100.00
2023-05-04T21:11:06.388Z,100.00
2023-05-04T21:14:07.461Z,98.46
2023-05-04T21:16:36.286Z,98.43
2023-05-04T21:29:28.497Z,99.13
2023-05-04T21:32:06.997Z,99.96
2023-05-04T21:34:39.519Z,100.00
2023-05-04T21:37:15.858Z,100.00
2023-05-04T21:39:56.147Z,99.64
2023-05-04T21:42:46.938Z,100.00
2023-05-04T21:45:33.056Z,100.00
2023-05-04T21:48:05.197Z,100.00
2023-05-04T21:50:35.903Z,96.14
2023-05-04T21:53:08.643Z,97.43
2023-05-04T21:55:43.218Z,98.58
2023-05-04T21:58:11.942Z,100.00
2023-05-04T22:00:43.676Z,98.79
2023-05-04T22:03:13.201Z,98.34
2023-05-04T22:05:41.741Z,99.96
2023-05-04T22:10:56.549Z,100.00
2023-05-04T22:13:30.641Z,100.00
2023-05-04T22:16:29.348Z,98.04
2023-05-04T22:18:58.621Z,98.90
2023-05-04T22:21:56.548Z,99.84
2023-05-04T22:24:26.483Z,99.10
2023-05-04T22:26:57.419Z,95.78
2023-05-04T22:29:37.239Z,91.55
2023-05-04T22:32:05.262Z,85.82
2023-05-04T22:34:33.542Z,80.46
2023-05-04T22:37:07.038Z,79.65
2023-05-04T22:42:17.419Z,77.17
2023-05-04T22:44:45.673Z,75.54
2023-05-04T22:47:13.482Z,74.95
2023-05-04T22:49:41.710Z,74.08
2023-05-04T22:52:09.930Z,73.19
2023-05-04T22:54:38.675Z,74.87
2023-05-04T22:57:10.035Z,69.91
2023-05-04T22:59:38.468Z,69.32
2023-05-04T23:02:07.461Z,66.86
2023-05-04T23:04:35.568Z,64.34
2023-05-04T23:07:03.730Z,64.11
2023-05-04T23:09:41.260Z,64.34
2023-05-04T23:12:14.850Z,64.51
2023-05-04T23:14:48.483Z,67.77
2023-05-04T23:17:17.223Z,71.59
2023-05-04T23:19:50.242Z,73.45
2023-05-04T23:22:28.418Z,76.68
2023-05-04T23:25:21.928Z,75.33
2023-05-04T23:27:53.161Z,78.08
2023-05-04T23:30:22.058Z,82.01
2023-05-04T23:32:50.613Z,81.99
2023-05-04T23:35:21.091Z,76.89
2023-05-04T23:38:07.748Z,80.21
2023-05-04T23:40:39.937Z,81.28
2023-05-04T23:43:07.891Z,82.58
2023-05-04T23:45:41.155Z,76.72
2023-05-04T23:48:14.004Z,77.72
2023-05-04T23:50:51.703Z,78.27
2023-05-04T23:53:20.221Z,77.64
2023-05-04T23:55:56.571Z,75.37
2023-05-04T23:58:24.437Z,76.96
